sensor_id;sensor_type;location;lat;lon;timestamp;P1;durP1;ratioP1;P2;durP2;ratioP2
47089;SDS011;32840;52.516;13.294;2023-03-01T00:02:27;34.47;;;17.65;;
47089;SDS011;32840;52.516;13.294;2023-03-01T00:05:12;35.33;;;18.17;;
47089;SDS011;32840;52.516;13.294;2023-03-01T00:07:58;35.85;;;19.95;;
47089;SDS011;32840;52.516;13.294;2023-03-01T00:10:42;35.13;;;19.45;;
47089;SDS011;32840;52.516;13.294;2023-03-01T00:13:27;37.58;;;19.73;;
47089;SDS011;32840;52.516;13.294;2023-03-01T00:16:17;33.33;;;18.80;;
47089;SDS011;32840;52.516;13.294;2023-03-01T00:19:09;31.17;;;18.48;;
47089;SDS011;32840;52.516;13.294;2023-03-01T00:21:56;31.27;;;18.13;;
47089;SDS011;32840;52.516;13.294;2023-03-01T00:24:40;32.03;;;18.15;;
47089;SDS011;32840;52.516;13.294;2023-03-01T00:27:25;36.45;;;18.73;;
47089;SDS011;32840;52.516;13.294;2023-03-01T00:30:10;33.17;;;18.40;;
47089;SDS011;32840;52.516;13.294;2023-03-01T00:32:55;30.35;;;17.85;;
47089;SDS011;32840;52.516;13.294;2023-03-01T00:35:40;31.98;;;19.00;;
47089;SDS011;32840;52.516;13.294;2023-03-01T00:38:25;35.20;;;19.02;;
47089;SDS011;32840;52.516;13.294;2023-03-01T00:41:11;30.98;;;18.52;;
47089;SDS011;32840;52.516;13.294;2023-03-01T00:43:58;35.58;;;19.15;;
47089;SDS011;32840;52.516;13.294;2023-03-01T00:46:43;36.60;;;19.30;;
47089;SDS011;32840;52.516;13.294;2023-03-01T00:49:28;33.25;;;18.65;;
47089;SDS011;32840;52.516;13.294;2023-03-01T00:52:13;28.77;;;17.73;;
47089;SDS011;32840;52.516;13.294;2023-03-01T00:54:58;35.92;;;18.40;;
47089;SDS011;32840;52.516;13.294;2023-03-01T00:57:43;34.38;;;19.10;;
47089;SDS011;32840;52.516;13.294;2023-03-01T01:00:28;32.20;;;19.92;;
47089;SDS011;32840;52.516;13.294;2023-03-01T01:03:12;32.95;;;17.83;;
47089;SDS011;32840;52.516;13.294;2023-03-01T01:05:57;35.75;;;17.27;;
47089;SDS011;32840;52.516;13.294;2023-03-01T01:08:42;34.00;;;18.23;;
47089;SDS011;32840;52.516;13.294;2023-03-01T01:11:28;29.50;;;16.60;;
47089;SDS011;32840;52.516;13.294;2023-03-01T01:14:13;34.90;;;18.17;;
47089;SDS011;32840;52.516;13.294;2023-03-01T01:16:59;28.30;;;17.73;;
47089;SDS011;32840;52.516;13.294;2023-03-01T01:19:44;32.30;;;18.58;;
47089;SDS011;32840;52.516;13.294;2023-03-01T01:22:29;30.13;;;16.65;;
47089;SDS011;32840;52.516;13.294;2023-03-01T01:25:14;32.72;;;19.10;;
47089;SDS011;32840;52.516;13.294;2023-03-01T01:27:58;34.00;;;16.88;;
47089;SDS011;32840;52.516;13.294;2023-03-01T01:30:43;31.88;;;17.65;;
47089;SDS011;32840;52.516;13.294;2023-03-01T01:33:28;31.83;;;18.42;;
47089;SDS011;32840;52.516;13.294;2023-03-01T01:36:13;31.08;;;17.52;;
47089;SDS011;32840;52.516;13.294;2023-03-01T01:38:58;31.38;;;17.88;;
47089;SDS011;32840;52.516;13.294;2023-03-01T01:41:45;33.45;;;17.83;;
47089;SDS011;32840;52.516;13.294;2023-03-01T01:44:30;33.20;;;16.88;;
47089;SDS011;32840;52.516;13.294;2023-03-01T01:47:18;36.42;;;17.98;;
47089;SDS011;32840;52.516;13.294;2023-03-01T01:50:08;34.13;;;17.13;;
47089;SDS011;32840;52.516;13.294;2023-03-01T01:53:01;29.10;;;18.38;;
47089;SDS011;32840;52.516;13.294;2023-03-01T01:55:47;32.17;;;17.55;;
47089;SDS011;32840;52.516;13.294;2023-03-01T01:58:36;32.00;;;18.25;;
47089;SDS011;32840;52.516;13.294;2023-03-01T02:01:22;27.70;;;16.75;;
47089;SDS011;32840;52.516;13.294;2023-03-01T02:04:07;28.45;;;16.40;;
47089;SDS011;32840;52.516;13.294;2023-03-01T02:07:03;25.98;;;16.55;;
47089;SDS011;32840;52.516;13.294;2023-03-01T02:09:53;27.90;;;16.75;;
47089;SDS011;32840;52.516;13.294;2023-03-01T02:12:37;27.45;;;17.58;;
47089;SDS011;32840;52.516;13.294;2023-03-01T02:15:23;31.63;;;17.67;;
47089;SDS011;32840;52.516;13.294;2023-03-01T02:18:08;28.77;;;17.25;;
47089;SDS011;32840;52.516;13.294;2023-03-01T02:23:50;31.13;;;17.05;;
47089;SDS011;32840;52.516;13.294;2023-03-01T02:26:36;33.58;;;18.35;;
47089;SDS011;32840;52.516;13.294;2023-03-01T02:29:29;29.25;;;16.92;;
47089;SDS011;32840;52.516;13.294;2023-03-01T02:32:14;32.08;;;17.02;;
47089;SDS011;32840;52.516;13.294;2023-03-01T02:34:59;29.77;;;17.55;;
47089;SDS011;32840;52.516;13.294;2023-03-01T02:37:44;28.98;;;16.80;;
47089;SDS011;32840;52.516;13.294;2023-03-01T02:40:29;27.60;;;16.83;;
47089;SDS011;32840;52.516;13.294;2023-03-01T02:43:17;30.73;;;17.70;;
47089;SDS011;32840;52.516;13.294;2023-03-01T02:46:08;29.33;;;17.83;;
47089;SDS011;32840;52.516;13.294;2023-03-01T02:48:59;29.52;;;17.20;;
47089;SDS011;32840;52.516;13.294;2023-03-01T02:52:01;30.48;;;16.52;;
47089;SDS011;32840;52.516;13.294;2023-03-01T02:55:09;33.60;;;17.35;;
47089;SDS011;32840;52.516;13.294;2023-03-01T02:57:56;31.15;;;16.65;;
47089;SDS011;32840;52.516;13.294;2023-03-01T03:00:44;27.67;;;16.77;;
47089;SDS011;32840;52.516;13.294;2023-03-01T03:03:30;27.75;;;17.08;;
47089;SDS011;32840;52.516;13.294;2023-03-01T03:06:15;28.92;;;16.35;;
47089;SDS011;32840;52.516;13.294;2023-03-01T03:09:00;30.80;;;16.60;;
47089;SDS011;32840;52.516;13.294;2023-03-01T03:11:46;25.90;;;16.98;;
47089;SDS011;32840;52.516;13.294;2023-03-01T03:14:30;32.03;;;17.73;;
47089;SDS011;32840;52.516;13.294;2023-03-01T03:17:19;30.35;;;18.02;;
47089;SDS011;32840;52.516;13.294;2023-03-01T03:20:04;29.55;;;16.83;;
47089;SDS011;32840;52.516;13.294;2023-03-01T03:22:51;29.42;;;17.70;;
47089;SDS011;32840;52.516;13.294;2023-03-01T03:25:38;32.63;;;17.77;;
47089;SDS011;32840;52.516;13.294;2023-03-01T03:28:23;29.33;;;17.10;;
47089;SDS011;32840;52.516;13.294;2023-03-01T03:31:07;28.15;;;17.00;;
47089;SDS011;32840;52.516;13.294;2023-03-01T03:33:52;36.08;;;17.98;;
47089;SDS011;32840;52.516;13.294;2023-03-01T03:36:38;31.17;;;17.52;;
47089;SDS011;32840;52.516;13.294;2023-03-01T03:39:23;28.83;;;16.85;;
47089;SDS011;32840;52.516;13.294;2023-03-01T03:42:08;28.58;;;16.73;;
47089;SDS011;32840;52.516;13.294;2023-03-01T03:44:54;27.13;;;16.95;;
47089;SDS011;32840;52.516;13.294;2023-03-01T03:47:39;34.58;;;18.48;;
47089;SDS011;32840;52.516;13.294;2023-03-01T03:50:24;32.17;;;17.20;;
47089;SDS011;32840;52.516;13.294;2023-03-01T03:53:11;31.60;;;17.50;;
47089;SDS011;32840;52.516;13.294;2023-03-01T03:55:56;34.70;;;17.48;;
47089;SDS011;32840;52.516;13.294;2023-03-01T03:58:42;31.40;;;17.20;;
47089;SDS011;32840;52.516;13.294;2023-03-01T04:01:27;28.17;;;17.45;;
47089;SDS011;32840;52.516;13.294;2023-03-01T04:04:12;28.52;;;17.55;;
47089;SDS011;32840;52.516;13.294;2023-03-01T04:06:57;30.13;;;17.23;;
47089;SDS011;32840;52.516;13.294;2023-03-01T04:09:42;30.80;;;18.08;;
47089;SDS011;32840;52.516;13.294;2023-03-01T04:12:27;32.38;;;16.98;;
47089;SDS011;32840;52.516;13.294;2023-03-01T04:15:12;29.65;;;16.90;;
47089;SDS011;32840;52.516;13.294;2023-03-01T04:17:57;30.52;;;17.13;;
47089;SDS011;32840;52.516;13.294;2023-03-01T04:20:43;30.70;;;18.00;;
47089;SDS011;32840;52.516;13.294;2023-03-01T04:23:29;33.40;;;20.13;;
47089;SDS011;32840;52.516;13.294;2023-03-01T04:26:14;29.55;;;16.42;;
47089;SDS011;32840;52.516;13.294;2023-03-01T04:28:59;28.15;;;17.00;;
47089;SDS011;32840;52.516;13.294;2023-03-01T04:31:43;29.80;;;17.38;;
47089;SDS011;32840;52.516;13.294;2023-03-01T04:34:29;31.05;;;17.08;;
47089;SDS011;32840;52.516;13.294;2023-03-01T04:37:14;33.25;;;16.98;;
47089;SDS011;32840;52.516;13.294;2023-03-01T04:40:00;31.35;;;17.05;;
47089;SDS011;32840;52.516;13.294;2023-03-01T04:42:56;31.63;;;17.55;;
47089;SDS011;32840;52.516;13.294;2023-03-01T04:45:41;29.65;;;17.05;;
47089;SDS011;32840;52.516;13.294;2023-03-01T04:48:26;28.40;;;16.23;;
47089;SDS011;32840;52.516;13.294;2023-03-01T04:51:11;27.45;;;15.95;;
47089;SDS011;32840;52.516;13.294;2023-03-01T04:53:57;29.25;;;15.73;;
47089;SDS011;32840;52.516;13.294;2023-03-01T04:56:42;28.48;;;16.05;;
47089;SDS011;32840;52.516;13.294;2023-03-01T04:59:27;29.90;;;15.85;;
47089;SDS011;32840;52.516;13.294;2023-03-01T05:02:12;27.13;;;15.70;;
47089;SDS011;32840;52.516;13.294;2023-03-01T05:04:57;24.77;;;14.80;;
47089;SDS011;32840;52.516;13.294;2023-03-01T05:07:42;27.23;;;15.88;;
47089;SDS011;32840;52.516;13.294;2023-03-01T05:10:27;29.73;;;16.52;;
47089;SDS011;32840;52.516;13.294;2023-03-01T05:13:13;26.10;;;15.05;;
47089;SDS011;32840;52.516;13.294;2023-03-01T05:18:50;26.92;;;15.82;;
47089;SDS011;32840;52.516;13.294;2023-03-01T05:21:35;27.00;;;16.45;;
47089;SDS011;32840;52.516;13.294;2023-03-01T05:24:39;27.08;;;16.27;;
47089;SDS011;32840;52.516;13.294;2023-03-01T05:27:24;30.27;;;16.63;;
47089;SDS011;32840;52.516;13.294;2023-03-01T05:30:09;28.27;;;17.13;;
47089;SDS011;32840;52.516;13.294;2023-03-01T05:33:01;30.02;;;17.35;;
47089;SDS011;32840;52.516;13.294;2023-03-01T05:35:46;31.50;;;18.35;;
47089;SDS011;32840;52.516;13.294;2023-03-01T05:38:32;29.95;;;16.23;;
47089;SDS011;32840;52.516;13.294;2023-03-01T05:41:17;40.00;;;21.13;;
47089;SDS011;32840;52.516;13.294;2023-03-01T05:44:02;35.97;;;18.10;;
47089;SDS011;32840;52.516;13.294;2023-03-01T05:46:49;30.42;;;18.23;;
47089;SDS011;32840;52.516;13.294;2023-03-01T05:49:33;31.33;;;17.10;;
47089;SDS011;32840;52.516;13.294;2023-03-01T05:52:18;28.45;;;16.15;;
47089;SDS011;32840;52.516;13.294;2023-03-01T05:55:03;28.73;;;16.65;;
47089;SDS011;32840;52.516;13.294;2023-03-01T05:57:48;27.00;;;15.38;;
47089;SDS011;32840;52.516;13.294;2023-03-01T06:00:34;34.25;;;18.52;;
47089;SDS011;32840;52.516;13.294;2023-03-01T06:03:19;33.20;;;18.50;;
47089;SDS011;32840;52.516;13.294;2023-03-01T06:06:04;32.67;;;19.58;;
47089;SDS011;32840;52.516;13.294;2023-03-01T06:08:49;32.78;;;17.75;;
47089;SDS011;32840;52.516;13.294;2023-03-01T06:11:34;31.05;;;17.90;;
47089;SDS011;32840;52.516;13.294;2023-03-01T06:14:20;34.00;;;17.50;;
47089;SDS011;32840;52.516;13.294;2023-03-01T06:17:05;32.88;;;19.15;;
47089;SDS011;32840;52.516;13.294;2023-03-01T06:19:50;31.17;;;16.75;;
47089;SDS011;32840;52.516;13.294;2023-03-01T06:22:34;33.78;;;18.52;;
47089;SDS011;32840;52.516;13.294;2023-03-01T06:25:21;43.78;;;20.42;;
47089;SDS011;32840;52.516;13.294;2023-03-01T06:28:06;34.92;;;18.45;;
47089;SDS011;32840;52.516;13.294;2023-03-01T06:30:51;32.00;;;18.02;;
47089;SDS011;32840;52.516;13.294;2023-03-01T06:33:36;30.98;;;18.60;;
47089;SDS011;32840;52.516;13.294;2023-03-01T06:36:21;38.00;;;18.50;;
47089;SDS011;32840;52.516;13.294;2023-03-01T06:39:06;36.78;;;19.60;;
47089;SDS011;32840;52.516;13.294;2023-03-01T06:41:51;34.17;;;18.08;;
47089;SDS011;32840;52.516;13.294;2023-03-01T06:44:36;34.90;;;19.02;;
47089;SDS011;32840;52.516;13.294;2023-03-01T06:47:21;38.30;;;18.98;;
47089;SDS011;32840;52.516;13.294;2023-03-01T06:50:06;34.53;;;18.38;;
47089;SDS011;32840;52.516;13.294;2023-03-01T06:52:55;48.03;;;25.92;;
47089;SDS011;32840;52.516;13.294;2023-03-01T06:55:40;40.13;;;20.48;;
47089;SDS011;32840;52.516;13.294;2023-03-01T06:58:25;31.63;;;18.48;;
47089;SDS011;32840;52.516;13.294;2023-03-01T07:01:10;33.75;;;18.48;;
47089;SDS011;32840;52.516;13.294;2023-03-01T07:03:55;29.85;;;17.88;;
47089;SDS011;32840;52.516;13.294;2023-03-01T07:06:40;30.30;;;17.52;;
47089;SDS011;32840;52.516;13.294;2023-03-01T07:09:25;33.38;;;18.40;;
47089;SDS011;32840;52.516;13.294;2023-03-01T07:12:10;29.95;;;16.90;;
47089;SDS011;32840;52.516;13.294;2023-03-01T07:14:55;28.00;;;17.92;;
47089;SDS011;32840;52.516;13.294;2023-03-01T07:17:40;31.42;;;17.98;;
47089;SDS011;32840;52.516;13.294;2023-03-01T07:20:24;32.33;;;18.33;;
47089;SDS011;32840;52.516;13.294;2023-03-01T07:23:09;32.67;;;19.60;;
47089;SDS011;32840;52.516;13.294;2023-03-01T07:25:54;32.95;;;19.05;;
47089;SDS011;32840;52.516;13.294;2023-03-01T07:28:39;34.58;;;19.40;;
47089;SDS011;32840;52.516;13.294;2023-03-01T07:31:24;40.85;;;19.65;;
47089;SDS011;32840;52.516;13.294;2023-03-01T07:34:11;32.17;;;18.20;;
47089;SDS011;32840;52.516;13.294;2023-03-01T07:36:56;36.22;;;19.05;;
47089;SDS011;32840;52.516;13.294;2023-03-01T07:39:41;30.65;;;17.45;;
47089;SDS011;32840;52.516;13.294;2023-03-01T07:42:26;26.70;;;18.08;;
47089;SDS011;32840;52.516;13.294;2023-03-01T07:45:11;34.53;;;18.75;;
47089;SDS011;32840;52.516;13.294;2023-03-01T07:47:57;30.02;;;16.95;;
47089;SDS011;32840;52.516;13.294;2023-03-01T07:50:42;28.90;;;17.05;;
47089;SDS011;32840;52.516;13.294;2023-03-01T07:53:27;30.90;;;17.05;;
47089;SDS011;32840;52.516;13.294;2023-03-01T07:56:13;29.77;;;16.13;;
47089;SDS011;32840;52.516;13.294;2023-03-01T07:59:00;26.83;;;14.13;;
47089;SDS011;32840;52.516;13.294;2023-03-01T08:01:45;25.55;;;14.60;;
47089;SDS011;32840;52.516;13.294;2023-03-01T08:04:30;29.83;;;14.32;;
47089;SDS011;32840;52.516;13.294;2023-03-01T08:07:15;24.90;;;14.65;;
47089;SDS011;32840;52.516;13.294;2023-03-01T08:10:00;31.77;;;16.65;;
47089;SDS011;32840;52.516;13.294;2023-03-01T08:12:45;28.85;;;15.68;;
47089;SDS011;32840;52.516;13.294;2023-03-01T08:15:31;28.08;;;16.40;;
47089;SDS011;32840;52.516;13.294;2023-03-01T08:18:16;28.55;;;15.68;;
47089;SDS011;32840;52.516;13.294;2023-03-01T08:21:03;27.33;;;15.60;;
47089;SDS011;32840;52.516;13.294;2023-03-01T08:23:48;30.77;;;15.20;;
47089;SDS011;32840;52.516;13.294;2023-03-01T08:26:33;24.55;;;14.57;;
47089;SDS011;32840;52.516;13.294;2023-03-01T08:29:18;23.55;;;13.45;;
47089;SDS011;32840;52.516;13.294;2023-03-01T08:32:03;21.92;;;12.10;;
47089;SDS011;32840;52.516;13.294;2023-03-01T08:34:48;22.30;;;11.88;;
47089;SDS011;32840;52.516;13.294;2023-03-01T08:37:33;23.10;;;11.68;;
47089;SDS011;32840;52.516;13.294;2023-03-01T08:40:18;21.33;;;12.25;;
47089;SDS011;32840;52.516;13.294;2023-03-01T08:43:03;22.70;;;11.82;;
47089;SDS011;32840;52.516;13.294;2023-03-01T08:45:48;25.88;;;12.77;;
47089;SDS011;32840;52.516;13.294;2023-03-01T08:48:33;17.58;;;9.38;;
47089;SDS011;32840;52.516;13.294;2023-03-01T08:51:18;21.23;;;11.23;;
47089;SDS011;32840;52.516;13.294;2023-03-01T08:54:05;19.10;;;10.00;;
47089;SDS011;32840;52.516;13.294;2023-03-01T08:56:51;17.77;;;8.90;;
47089;SDS011;32840;52.516;13.294;2023-03-01T08:59:36;18.90;;;8.10;;
47089;SDS011;32840;52.516;13.294;2023-03-01T09:02:21;14.98;;;8.50;;
47089;SDS011;32840;52.516;13.294;2023-03-01T09:05:07;19.08;;;8.93;;
47089;SDS011;32840;52.516;13.294;2023-03-01T09:07:52;15.02;;;7.85;;
47089;SDS011;32840;52.516;13.294;2023-03-01T09:10:37;18.52;;;6.93;;
47089;SDS011;32840;52.516;13.294;2023-03-01T09:13:23;12.63;;;7.93;;
47089;SDS011;32840;52.516;13.294;2023-03-01T09:16:08;15.75;;;8.50;;
47089;SDS011;32840;52.516;13.294;2023-03-01T09:18:55;11.40;;;7.50;;
47089;SDS011;32840;52.516;13.294;2023-03-01T09:21:40;17.02;;;8.38;;
47089;SDS011;32840;52.516;13.294;2023-03-01T09:24:25;14.95;;;8.95;;
47089;SDS011;32840;52.516;13.294;2023-03-01T09:27:10;15.55;;;7.85;;
47089;SDS011;32840;52.516;13.294;2023-03-01T09:29:56;13.88;;;7.38;;
47089;SDS011;32840;52.516;13.294;2023-03-01T09:32:41;12.18;;;6.97;;
47089;SDS011;32840;52.516;13.294;2023-03-01T09:35:26;16.55;;;7.15;;
47089;SDS011;32840;52.516;13.294;2023-03-01T09:38:12;15.20;;;8.50;;
47089;SDS011;32840;52.516;13.294;2023-03-01T09:40:58;10.88;;;6.78;;
47089;SDS011;32840;52.516;13.294;2023-03-01T09:43:49;11.35;;;6.00;;
47089;SDS011;32840;52.516;13.294;2023-03-01T09:46:40;21.85;;;6.90;;
47089;SDS011;32840;52.516;13.294;2023-03-01T09:49:28;13.95;;;6.85;;
47089;SDS011;32840;52.516;13.294;2023-03-01T10:01:35;18.27;;;9.73;;
47089;SDS011;32840;52.516;13.294;2023-03-01T10:10:16;10.32;;;5.15;;
47089;SDS011;32840;52.516;13.294;2023-03-01T10:16:55;11.63;;;5.15;;
47089;SDS011;32840;52.516;13.294;2023-03-01T10:19:47;9.10;;;5.57;;
47089;SDS011;32840;52.516;13.294;2023-03-01T10:22:32;14.27;;;6.30;;
47089;SDS011;32840;52.516;13.294;2023-03-01T10:25:20;10.15;;;4.97;;
47089;SDS011;32840;52.516;13.294;2023-03-01T10:28:17;10.10;;;4.68;;
47089;SDS011;32840;52.516;13.294;2023-03-01T10:31:09;35.05;;;16.88;;
47089;SDS011;32840;52.516;13.294;2023-03-01T10:34:08;18.00;;;9.77;;
47089;SDS011;32840;52.516;13.294;2023-03-01T10:36:58;9.98;;;4.57;;
47089;SDS011;32840;52.516;13.294;2023-03-01T10:39:57;11.23;;;5.63;;
47089;SDS011;32840;52.516;13.294;2023-03-01T10:42:53;12.57;;;4.95;;
47089;SDS011;32840;52.516;13.294;2023-03-01T10:45:42;8.30;;;4.63;;
47089;SDS011;32840;52.516;13.294;2023-03-01T10:48:27;11.43;;;5.32;;
47089;SDS011;32840;52.516;13.294;2023-03-01T10:51:16;34.85;;;17.23;;
47089;SDS011;32840;52.516;13.294;2023-03-01T10:54:04;9.10;;;5.13;;
47089;SDS011;32840;52.516;13.294;2023-03-01T10:57:03;8.30;;;4.55;;
47089;SDS011;32840;52.516;13.294;2023-03-01T10:59:51;13.40;;;6.30;;
47089;SDS011;32840;52.516;13.294;2023-03-01T11:02:47;11.57;;;6.18;;
47089;SDS011;32840;52.516;13.294;2023-03-01T11:05:50;10.65;;;5.88;;
47089;SDS011;32840;52.516;13.294;2023-03-01T11:08:48;16.13;;;7.20;;
47089;SDS011;32840;52.516;13.294;2023-03-01T11:11:34;116.03;;;74.55;;
47089;SDS011;32840;52.516;13.294;2023-03-01T11:14:24;16.98;;;7.47;;
47089;SDS011;32840;52.516;13.294;2023-03-01T11:23:03;13.85;;;8.30;;
47089;SDS011;32840;52.516;13.294;2023-03-01T11:26:04;10.50;;;5.70;;
47089;SDS011;32840;52.516;13.294;2023-03-01T11:28:53;11.88;;;6.43;;
47089;SDS011;32840;52.516;13.294;2023-03-01T11:31:41;47.05;;;26.33;;
47089;SDS011;32840;52.516;13.294;2023-03-01T11:40:39;10.35;;;5.63;;
47089;SDS011;32840;52.516;13.294;2023-03-01T11:43:36;12.00;;;5.53;;
47089;SDS011;32840;52.516;13.294;2023-03-01T11:47:05;10.32;;;5.57;;
47089;SDS011;32840;52.516;13.294;2023-03-01T11:50:04;10.65;;;5.18;;
47089;SDS011;32840;52.516;13.294;2023-03-01T11:52:59;8.57;;;4.75;;
47089;SDS011;32840;52.516;13.294;2023-03-01T11:56:05;12.35;;;4.90;;
47089;SDS011;32840;52.516;13.294;2023-03-01T11:59:27;9.93;;;5.00;;
47089;SDS011;32840;52.516;13.294;2023-03-01T12:12:04;10.40;;;4.47;;
47089;SDS011;32840;52.516;13.294;2023-03-01T12:18:13;9.55;;;5.25;;
47089;SDS011;32840;52.516;13.294;2023-03-01T12:21:17;9.27;;;5.43;;
47089;SDS011;32840;52.516;13.294;2023-03-01T12:27:30;10.25;;;4.90;;
47089;SDS011;32840;52.516;13.294;2023-03-01T12:51:32;8.47;;;4.63;;
47089;SDS011;32840;52.516;13.294;2023-03-01T12:54:30;11.75;;;4.13;;
47089;SDS011;32840;52.516;13.294;2023-03-01T12:57:18;9.13;;;5.47;;
47089;SDS011;32840;52.516;13.294;2023-03-01T13:05:59;9.38;;;4.20;;
47089;SDS011;32840;52.516;13.294;2023-03-01T13:08:54;9.73;;;4.38;;
47089;SDS011;32840;52.516;13.294;2023-03-01T13:11:48;8.40;;;4.00;;
47089;SDS011;32840;52.516;13.294;2023-03-01T13:14:35;7.82;;;3.88;;
47089;SDS011;32840;52.516;13.294;2023-03-01T13:17:40;7.97;;;3.95;;
47089;SDS011;32840;52.516;13.294;2023-03-01T13:20:45;7.07;;;3.38;;
47089;SDS011;32840;52.516;13.294;2023-03-01T13:23:34;10.73;;;3.90;;
47089;SDS011;32840;52.516;13.294;2023-03-01T13:26:26;30.17;;;17.13;;
47089;SDS011;32840;52.516;13.294;2023-03-01T13:29:25;7.35;;;4.05;;
47089;SDS011;32840;52.516;13.294;2023-03-01T13:32:21;10.60;;;3.90;;
47089;SDS011;32840;52.516;13.294;2023-03-01T13:41:48;5.65;;;3.03;;
47089;SDS011;32840;52.516;13.294;2023-03-01T13:44:38;7.00;;;3.20;;
47089;SDS011;32840;52.516;13.294;2023-03-01T13:47:23;7.80;;;3.13;;
47089;SDS011;32840;52.516;13.294;2023-03-01T13:50:15;8.57;;;4.00;;
47089;SDS011;32840;52.516;13.294;2023-03-01T13:53:04;5.85;;;3.40;;
47089;SDS011;32840;52.516;13.294;2023-03-01T13:55:55;7.10;;;3.80;;
47089;SDS011;32840;52.516;13.294;2023-03-01T13:59:18;5.40;;;2.90;;
47089;SDS011;32840;52.516;13.294;2023-03-01T14:02:11;10.07;;;5.18;;
47089;SDS011;32840;52.516;13.294;2023-03-01T14:04:58;7.72;;;2.90;;
47089;SDS011;32840;52.516;13.294;2023-03-01T14:07:43;5.22;;;2.33;;
47089;SDS011;32840;52.516;13.294;2023-03-01T14:10:44;8.45;;;3.95;;
47089;SDS011;32840;52.516;13.294;2023-03-01T14:13:46;8.45;;;2.47;;
47089;SDS011;32840;52.516;13.294;2023-03-01T14:19:46;4.80;;;2.70;;
47089;SDS011;32840;52.516;13.294;2023-03-01T14:22:35;5.30;;;3.10;;
47089;SDS011;32840;52.516;13.294;2023-03-01T14:25:31;4.28;;;2.75;;
47089;SDS011;32840;52.516;13.294;2023-03-01T14:28:18;6.55;;;3.78;;
47089;SDS011;32840;52.516;13.294;2023-03-01T14:31:23;5.65;;;3.05;;
47089;SDS011;32840;52.516;13.294;2023-03-01T14:34:22;6.50;;;3.17;;
47089;SDS011;32840;52.516;13.294;2023-03-01T14:37:42;7.10;;;3.10;;
47089;SDS011;32840;52.516;13.294;2023-03-01T14:40:30;4.80;;;2.78;;
47089;SDS011;32840;52.516;13.294;2023-03-01T14:43:20;6.00;;;2.95;;
47089;SDS011;32840;52.516;13.294;2023-03-01T14:46:19;10.70;;;5.22;;
47089;SDS011;32840;52.516;13.294;2023-03-01T14:49:25;14.60;;;9.23;;
47089;SDS011;32840;52.516;13.294;2023-03-01T14:52:21;5.13;;;2.83;;
47089;SDS011;32840;52.516;13.294;2023-03-01T14:55:20;5.95;;;3.45;;
47089;SDS011;32840;52.516;13.294;2023-03-01T14:58:23;6.50;;;2.20;;
47089;SDS011;32840;52.516;13.294;2023-03-01T15:01:19;6.00;;;3.50;;
47089;SDS011;32840;52.516;13.294;2023-03-01T15:04:05;8.70;;;3.03;;
47089;SDS011;32840;52.516;13.294;2023-03-01T15:06:51;5.38;;;2.65;;
47089;SDS011;32840;52.516;13.294;2023-03-01T15:09:37;3.83;;;1.95;;
47089;SDS011;32840;52.516;13.294;2023-03-01T15:18:27;10.45;;;3.97;;
47089;SDS011;32840;52.516;13.294;2023-03-01T15:21:18;6.90;;;2.42;;
47089;SDS011;32840;52.516;13.294;2023-03-01T15:24:40;4.22;;;1.80;;
47089;SDS011;32840;52.516;13.294;2023-03-01T15:27:23;6.63;;;2.88;;
47089;SDS011;32840;52.516;13.294;2023-03-01T15:30:13;4.68;;;1.73;;
47089;SDS011;32840;52.516;13.294;2023-03-01T15:33:16;5.07;;;1.60;;
47089;SDS011;32840;52.516;13.294;2023-03-01T15:36:29;5.53;;;2.05;;
47089;SDS011;32840;52.516;13.294;2023-03-01T15:39:35;6.05;;;1.95;;
47089;SDS011;32840;52.516;13.294;2023-03-01T15:45:25;3.75;;;2.03;;
47089;SDS011;32840;52.516;13.294;2023-03-01T15:48:19;5.53;;;2.00;;
47089;SDS011;32840;52.516;13.294;2023-03-01T15:51:04;6.80;;;2.08;;
47089;SDS011;32840;52.516;13.294;2023-03-01T15:53:59;5.15;;;2.35;;
47089;SDS011;32840;52.516;13.294;2023-03-01T15:56:50;6.30;;;2.55;;
47089;SDS011;32840;52.516;13.294;2023-03-01T15:59:35;8.70;;;3.25;;
47089;SDS011;32840;52.516;13.294;2023-03-01T16:02:22;7.50;;;2.85;;
47089;SDS011;32840;52.516;13.294;2023-03-01T16:05:20;6.40;;;2.53;;
47089;SDS011;32840;52.516;13.294;2023-03-01T16:10:54;7.22;;;3.10;;
47089;SDS011;32840;52.516;13.294;2023-03-01T16:13:39;7.80;;;3.33;;
47089;SDS011;32840;52.516;13.294;2023-03-01T16:16:24;6.60;;;2.85;;
47089;SDS011;32840;52.516;13.294;2023-03-01T16:19:09;12.63;;;5.55;;
47089;SDS011;32840;52.516;13.294;2023-03-01T16:21:54;10.70;;;6.03;;
47089;SDS011;32840;52.516;13.294;2023-03-01T16:24:39;6.45;;;2.70;;
47089;SDS011;32840;52.516;13.294;2023-03-01T16:27:26;6.00;;;2.53;;
47089;SDS011;32840;52.516;13.294;2023-03-01T16:30:12;6.40;;;2.83;;
47089;SDS011;32840;52.516;13.294;2023-03-01T16:32:58;10.02;;;3.88;;
47089;SDS011;32840;52.516;13.294;2023-03-01T16:35:43;6.85;;;3.25;;
47089;SDS011;32840;52.516;13.294;2023-03-01T16:38:28;8.20;;;3.40;;
47089;SDS011;32840;52.516;13.294;2023-03-01T16:41:16;7.65;;;4.15;;
47089;SDS011;32840;52.516;13.294;2023-03-01T16:44:02;7.57;;;3.47;;
47089;SDS011;32840;52.516;13.294;2023-03-01T16:46:47;7.95;;;3.70;;
47089;SDS011;32840;52.516;13.294;2023-03-01T16:49:34;8.05;;;3.92;;
47089;SDS011;32840;52.516;13.294;2023-03-01T16:52:18;7.93;;;3.70;;
47089;SDS011;32840;52.516;13.294;2023-03-01T16:55:06;7.43;;;3.67;;
47089;SDS011;32840;52.516;13.294;2023-03-01T16:57:53;10.68;;;5.18;;
47089;SDS011;32840;52.516;13.294;2023-03-01T17:00:38;12.23;;;4.95;;
47089;SDS011;32840;52.516;13.294;2023-03-01T17:03:25;10.98;;;4.55;;
47089;SDS011;32840;52.516;13.294;2023-03-01T17:06:12;11.02;;;4.60;;
47089;SDS011;32840;52.516;13.294;2023-03-01T17:09:02;18.13;;;7.88;;
47089;SDS011;32840;52.516;13.294;2023-03-01T17:11:48;9.52;;;4.70;;
47089;SDS011;32840;52.516;13.294;2023-03-01T17:14:34;10.73;;;4.82;;
47089;SDS011;32840;52.516;13.294;2023-03-01T17:17:19;12.07;;;5.38;;
47089;SDS011;32840;52.516;13.294;2023-03-01T17:20:04;11.93;;;5.40;;
47089;SDS011;32840;52.516;13.294;2023-03-01T17:22:49;11.23;;;5.00;;
47089;SDS011;32840;52.516;13.294;2023-03-01T17:25:35;10.27;;;4.72;;
47089;SDS011;32840;52.516;13.294;2023-03-01T17:28:27;7.05;;;3.67;;
47089;SDS011;32840;52.516;13.294;2023-03-01T17:31:14;12.38;;;7.45;;
47089;SDS011;32840;52.516;13.294;2023-03-01T17:33:58;9.93;;;5.05;;
47089;SDS011;32840;52.516;13.294;2023-03-01T17:36:45;11.85;;;5.32;;
47089;SDS011;32840;52.516;13.294;2023-03-01T17:39:30;15.65;;;7.63;;
47089;SDS011;32840;52.516;13.294;2023-03-01T17:42:19;10.18;;;5.05;;
47089;SDS011;32840;52.516;13.294;2023-03-01T17:45:04;14.32;;;6.20;;
47089;SDS011;32840;52.516;13.294;2023-03-01T17:47:49;11.43;;;5.53;;
47089;SDS011;32840;52.516;13.294;2023-03-01T17:50:35;14.77;;;6.35;;
47089;SDS011;32840;52.516;13.294;2023-03-01T17:53:22;16.30;;;6.68;;
47089;SDS011;32840;52.516;13.294;2023-03-01T17:56:07;15.82;;;7.25;;
47089;SDS011;32840;52.516;13.294;2023-03-01T17:58:54;14.48;;;6.85;;
47089;SDS011;32840;52.516;13.294;2023-03-01T18:01:40;14.95;;;7.00;;